This is the latest recevied weather packets stored in our database for station/object AB8Y-13. If no packets are shown the sender has not sent any weather packets the latest 10 day(s).
| Time | Temp. | Humidity | Pressure | Rain* | Wind** | Luminosity | Snow |
|---|---|---|---|---|---|---|---|
| 1777484412 | 11.67° C | 65% | 1011.8 hPa | 0 mm | - | 429 W/m² | - |
| 1777484109 | 11.11° C | 65% | 1011.6 hPa | 0 mm | - | 585 W/m² | - |
| 1777483804 | 11.11° C | 65% | 1011.9 hPa | 0 mm | - | 286 W/m² | - |
| 1777483501 | 11.11° C | 69% | 1011.9 hPa | 0 mm | - | 318 W/m² | - |
| 1777483196 | 10.56° C | 68% | 1012 hPa | 0 mm | - | 281 W/m² | - |
| 1777482893 | 10.56° C | 69% | 1012.1 hPa | 0 mm | - | 200 W/m² | - |
| 1777482588 | 11.11° C | 67% | 1012 hPa | 0 mm | - | 162 W/m² | - |
| 1777482286 | 11.67° C | 66% | 1012.3 hPa | 0 mm | - | 323 W/m² | - |
| 1777481983 | 11.67° C | 67% | 1012.2 hPa | 0 mm | - | 335 W/m² | - |
| 1777481681 | 11.67° C | 67% | 1012.2 hPa | 0 mm | - | 444 W/m² | - |
| 1777481378 | 11.11° C | 73% | 1012.4 hPa | 0 mm | - | 766 W/m² | - |
| 1777481074 | 11.11° C | 71% | 1012.6 hPa | 0 mm | - | 344 W/m² | - |
| 1777480771 | 11.67° C | 68% | 1012.6 hPa | 0 mm | - | 290 W/m² | - |
| 1777480468 | 11.67° C | 68% | 1012.7 hPa | 0 mm | - | 264 W/m² | - |
| 1777480163 | 11.67° C | 69% | 1012.8 hPa | 0 mm | - | 411 W/m² | - |
| 1777479860 | 11.67° C | 72% | 1012.7 hPa | 0 mm | - | 414 W/m² | - |
| 1777479557 | 11.67° C | 70% | 1013 hPa | 0 mm | - | 383 W/m² | - |
| 1777479255 | 11.67° C | 68% | 1012.7 hPa | 0 mm | - | 389 W/m² | - |
| 1777478951 | 11.67° C | 70% | 1012.8 hPa | 0 mm | - | 427 W/m² | - |
| 1777478648 | 11.67° C | 71% | 1012.6 hPa | 0 mm | - | 564 W/m² | - |
| 1777478345 | 11.11° C | 72% | 1012.8 hPa | 0 mm | - | 688 W/m² | - |
| 1777478041 | 11.67° C | 73% | 1012.9 hPa | 0 mm | - | 335 W/m² | - |
| 1777477736 | 11.67° C | 70% | 1012.7 hPa | 0 mm | - | 512 W/m² | - |
| 1777477433 | 10.56° C | 74% | 1013.1 hPa | 0 mm | - | 1441 W/m² | - |
| 1777477130 | 10.56° C | 71% | 1013.3 hPa | 0 mm | - | 409 W/m² | - |
* Rain latest hour (hover to see other rain measurements)
** Current wind speed in m/s (hover to see current wind gust speed)